Time;durP1;ratioP1;P1;durP2;ratioP2;P2;SDS_P1;SDS_P2;PMS_P1;PMS_P2;Temp;Humidity;BMP_temperature;BMP_pressure;BME280_temperature;BME280_humidity;BME280_pressure;Samples;Min_cycle;Max_cycle;Signal;HPM_P1;HPM_P2
2020/12/24 00:02:00;;;;;;;5.57;2.17;;;4.30;99.90;;;;;;4904299;28;20090;-84
2020/12/24 00:04:22;;;;;;;10.57;2.50;;;4.40;99.90;;;;;;4903301;28;20182;-85
2020/12/24 00:06:45;;;;;;;6.80;2.30;;;4.40;99.90;;;;;;4890729;28;20186;-85
2020/12/24 00:09:10;;;;;;;9.18;2.20;;;4.40;99.90;;;;;;4896568;28;20118;-86
2020/12/24 00:11:33;;;;;;;14.32;2.28;;;4.30;99.90;;;;;;4885601;28;20736;-84
2020/12/24 00:13:56;;;;;;;10.90;2.58;;;4.30;99.90;;;;;;4883681;28;20175;-85
2020/12/24 00:16:19;;;;;;;6.90;2.30;;;4.30;99.90;;;;;;4883731;28;20781;-87
2020/12/24 00:18:41;;;;;;;6.38;2.42;;;4.30;99.90;;;;;;4901223;28;21338;-84
2020/12/24 00:21:09;;;;;;;13.48;3.10;;;4.30;99.90;;;;;;4902129;28;20114;-84
2020/12/24 00:23:32;;;;;;;9.50;2.15;;;4.30;99.90;;;;;;4901849;28;21063;-85
2020/12/24 00:25:56;;;;;;;11.85;2.55;;;;;;;;;;4902907;28;20178;-86
2020/12/24 00:28:19;;;;;;;13.10;2.67;;;;;;;;;;4902758;28;20090;-85
2020/12/24 00:30:42;;;;;;;11.05;2.28;;;4.30;99.90;;;;;;4904818;28;20166;-85
2020/12/24 00:33:06;;;;;;;13.85;3.13;;;4.30;99.90;;;;;;4877042;28;20138;-87
2020/12/24 00:35:28;;;;;;;8.48;3.28;;;4.30;99.90;;;;;;4902974;28;20541;-86
2020/12/24 00:37:51;;;;;;;10.98;2.67;;;4.30;99.90;;;;;;4904203;28;20097;-86
2020/12/24 00:40:14;;;;;;;16.98;3.10;;;4.30;99.90;;;;;;4892572;28;20102;-86
2020/12/24 00:42:38;;;;;;;10.93;3.05;;;;;;;;;;4875853;28;20644;-84
2020/12/24 00:45:00;;;;;;;15.30;3.08;;;5.90;99.90;;;;;;4901170;28;20169;-83
2020/12/24 00:47:23;;;;;;;12.70;2.70;;;4.30;99.90;;;;;;4899362;28;20141;-88
2020/12/24 00:49:46;;;;;;;7.95;2.53;;;4.30;99.90;;;;;;4874168;28;20083;-88
2020/12/24 00:52:09;;;;;;;17.17;2.40;;;4.30;99.90;;;;;;4872140;28;20104;-87
2020/12/24 00:54:31;;;;;;;9.07;2.42;;;4.30;99.90;;;;;;4892966;28;20101;-85
2020/12/24 00:56:54;;;;;;;16.85;2.70;;;4.30;99.90;;;;;;4887175;28;20098;-88
2020/12/24 00:59:19;;;;;;;12.45;2.58;;;4.30;99.90;;;;;;4904414;28;20174;-84
2020/12/24 01:01:41;;;;;;;9.82;3.22;;;4.30;99.90;;;;;;4902077;28;20095;-84
2020/12/24 01:04:04;;;;;;;9.43;1.90;;;4.30;99.90;;;;;;4903058;28;20123;-85
2020/12/24 01:06:27;;;;;;;6.93;2.25;;;4.30;99.90;;;;;;4900817;28;20178;-85
2020/12/24 01:08:51;;;;;;;13.27;2.50;;;4.30;99.90;;;;;;4868253;28;20186;-85
2020/12/24 01:11:14;;;;;;;10.88;2.40;;;4.30;99.90;;;;;;4890306;28;20083;-84
2020/12/24 01:13:37;;;;;;;17.52;3.47;;;4.30;99.90;;;;;;4901406;28;20169;-85
2020/12/24 01:16:01;;;;;;;15.55;2.53;;;4.20;99.90;;;;;;4900235;28;20094;-86
2020/12/24 01:18:24;;;;;;;18.08;2.58;;;4.20;99.90;;;;;;4897338;28;20617;-86
2020/12/24 01:20:46;;;;;;;15.65;2.50;;;4.20;99.90;;;;;;4893187;28;20106;-84
2020/12/24 01:23:09;;;;;;;12.68;2.38;;;4.20;99.90;;;;;;4902975;28;20091;-85
2020/12/24 01:25:32;;;;;;;9.40;1.77;;;4.20;99.90;;;;;;4889337;28;20170;-85
2020/12/24 01:27:55;;;;;;;8.43;2.00;;;4.10;99.90;;;;;;4900104;28;20194;-85
2020/12/24 01:30:18;;;;;;;14.07;2.67;;;4.10;99.90;;;;;;4897177;28;20093;-86
2020/12/24 01:32:41;;;;;;;6.45;1.85;;;4.10;99.90;;;;;;4900681;28;20105;-86
2020/12/24 01:35:04;;;;;;;10.65;1.73;;;4.10;99.90;;;;;;4870850;28;20138;-86
2020/12/24 01:37:27;;;;;;;10.38;1.92;;;4.10;99.90;;;;;;4901131;28;20110;-87
2020/12/24 01:39:50;;;;;;;21.60;2.15;;;4.10;99.90;;;;;;4899844;28;20518;-84
2020/12/24 01:42:14;;;;;;;7.28;1.70;;;4.00;99.90;;;;;;4893075;28;20202;-85
2020/12/24 01:44:37;;;;;;;18.27;1.52;;;4.10;99.90;;;;;;4901272;28;20091;-85
2020/12/24 01:46:59;;;;;;;10.20;1.40;;;4.00;99.90;;;;;;4899962;28;20095;-86
2020/12/24 01:49:23;;;;;;;9.10;1.40;;;;;;;;;;4904211;28;20095;-85
2020/12/24 01:51:51;;;;;;;15.63;1.70;;;4.00;99.90;;;;;;4899210;28;20614;-85
2020/12/24 01:54:14;;;;;;;8.43;1.48;;;;;;;;;;4899361;28;20175;-85
2020/12/24 01:56:36;;;;;;;10.98;1.38;;;4.00;99.90;;;;;;4886825;28;20083;-85
2020/12/24 01:58:59;;;;;;;9.40;1.30;;;4.00;99.90;;;;;;4903179;28;20087;-87
2020/12/24 02:01:23;;;;;;;9.23;1.25;;;4.00;99.90;;;;;;4901996;28;20553;-85
2020/12/24 02:03:46;;;;;;;8.77;1.38;;;3.90;99.90;;;;;;4900793;28;20222;-86
2020/12/24 02:06:10;;;;;;;7.03;1.40;;;;;;;;;;4905488;28;20086;-85
2020/12/24 02:08:33;;;;;;;4.50;1.30;;;4.00;99.90;;;;;;4898179;28;20094;-86
2020/12/24 02:10:56;;;;;;;6.53;1.20;;;3.90;99.90;;;;;;4897072;28;20391;-85
2020/12/24 02:13:19;;;;;;;15.32;1.45;;;4.00;99.90;;;;;;4904711;28;20174;-84
2020/12/24 02:15:41;;;;;;;9.70;1.25;;;4.00;99.90;;;;;;4900330;28;20503;-86
2020/12/24 02:18:04;;;;;;;9.75;1.52;;;3.90;99.90;;;;;;4904767;28;20182;-87
2020/12/24 02:20:28;;;;;;;7.90;1.63;;;3.90;99.90;;;;;;4892191;28;20227;-87
2020/12/24 02:22:51;;;;;;;3.40;1.40;;;3.90;99.90;;;;;;4905884;28;20099;-86
2020/12/24 02:25:14;;;;;;;18.10;1.90;;;4.00;99.90;;;;;;4900177;28;20091;-86
2020/12/24 02:27:37;;;;;;;3.83;1.30;;;3.90;99.90;;;;;;4902603;28;20194;-85
2020/12/24 02:30:01;;;;;;;5.80;1.60;;;4.00;99.90;;;;;;4899830;28;20083;-85
2020/12/24 02:32:24;;;;;;;6.22;1.40;;;3.90;99.90;;;;;;4898772;28;20453;-86
2020/12/24 02:34:47;;;;;;;5.60;1.33;;;3.90;99.90;;;;;;4872068;28;20083;-84
2020/12/24 02:37:12;;;;;;;8.50;1.50;;;;;;;;;;4899957;28;20176;-86
2020/12/24 02:39:36;;;;;;;5.07;1.20;;;;;;;;;;4893274;28;20099;-86
2020/12/24 02:41:59;;;;;;;9.15;1.63;;;3.90;99.90;;;;;;4898908;28;20170;-85
2020/12/24 02:44:23;;;;;;;8.52;1.83;;;3.90;99.90;;;;;;4901555;28;20099;-85
2020/12/24 02:46:45;;;;;;;10.25;1.65;;;3.90;99.90;;;;;;4900680;28;20276;-86
2020/12/24 02:49:09;;;;;;;12.45;1.58;;;4.00;99.90;;;;;;4901059;28;20089;-85
2020/12/24 02:51:31;;;;;;;12.05;2.00;;;4.00;99.90;;;;;;4901464;28;20107;-86
2020/12/24 02:53:54;;;;;;;9.20;1.60;;;4.00;99.90;;;;;;4871443;28;20096;-87
2020/12/24 02:56:18;;;;;;;5.05;1.33;;;;;;;;;;4883938;28;20186;-86
2020/12/24 02:58:41;;;;;;;7.45;1.50;;;;;;;;;;4900037;28;20091;-85
2020/12/24 03:01:05;;;;;;;5.60;1.30;;;3.90;99.90;;;;;;4898630;28;20126;-86
2020/12/24 03:03:28;;;;;;;11.23;1.40;;;3.90;99.90;;;;;;4904238;28;20087;-84
2020/12/24 03:05:50;;;;;;;4.57;1.25;;;3.90;99.90;;;;;;4902075;28;20202;-86
2020/12/24 03:08:13;;;;;;;4.18;1.13;;;4.00;99.90;;;;;;4903148;28;20166;-85
2020/12/24 03:10:36;;;;;;;7.90;1.25;;;4.00;99.90;;;;;;4900091;28;20750;-85
2020/12/24 03:13:00;;;;;;;4.05;1.20;;;4.00;99.90;;;;;;4892108;28;20095;-86
2020/12/24 03:15:22;;;;;;;6.70;0.98;;;4.00;99.90;;;;;;4894961;28;20299;-85
2020/12/24 03:17:45;;;;;;;8.82;1.40;;;4.00;99.90;;;;;;4901841;28;20083;-86
2020/12/24 03:20:08;;;;;;;7.00;1.17;;;4.00;99.90;;;;;;4896214;28;20089;-87
2020/12/24 03:22:30;;;;;;;8.25;1.00;;;3.90;99.90;;;;;;4901132;28;20095;-86
2020/12/24 03:24:54;;;;;;;12.52;1.48;;;4.00;99.90;;;;;;4883462;28;20179;-86
2020/12/24 03:27:17;;;;;;;4.35;0.98;;;4.00;99.90;;;;;;4869031;28;20107;-86
2020/12/24 03:29:41;;;;;;;3.03;0.93;;;;;;;;;;4885926;28;20179;-87
2020/12/24 03:32:04;;;;;;;5.05;0.95;;;4.00;99.90;;;;;;4881291;28;20090;-86
2020/12/24 03:34:26;;;;;;;8.45;0.90;;;4.00;99.90;;;;;;4885892;28;20200;-84
2020/12/24 03:36:50;;;;;;;7.07;0.95;;;4.00;99.90;;;;;;4876166;28;20593;-85
2020/12/24 03:39:13;;;;;;;4.35;1.00;;;4.00;99.90;;;;;;4879490;28;20095;-86
2020/12/24 03:41:36;;;;;;;4.25;0.90;;;;;;;;;;4882090;28;20105;-85
2020/12/24 03:43:59;;;;;;;14.38;1.10;;;4.00;99.90;;;;;;4894487;28;20091;-84
2020/12/24 03:46:22;;;;;;;4.82;1.25;;;4.00;99.90;;;;;;4892539;28;20086;-86
2020/12/24 03:48:45;;;;;;;8.25;1.17;;;4.00;99.90;;;;;;4890807;28;20110;-84
2020/12/24 03:51:08;;;;;;;6.30;0.98;;;4.00;99.90;;;;;;4892288;28;23593;-84
2020/12/24 03:53:31;;;;;;;2.65;0.90;;;4.00;99.90;;;;;;4896037;28;20118;-86
2020/12/24 03:55:53;;;;;;;8.85;0.65;;;4.00;99.90;;;;;;4901873;28;20101;-88
2020/12/24 03:58:16;;;;;;;5.50;0.50;;;4.00;99.90;;;;;;4894210;28;26489;-85
2020/12/24 04:00:39;;;;;;;7.25;0.98;;;4.00;99.90;;;;;;4913571;28;20105;-84
2020/12/24 04:03:03;;;;;;;3.65;0.50;;;;;;;;;;4902191;28;20095;-83
2020/12/24 04:05:26;;;;;;;5.60;0.68;;;4.00;99.90;;;;;;4905365;28;20087;-86
2020/12/24 04:07:50;;;;;;;4.10;0.75;;;4.00;99.90;;;;;;4904671;28;20170;-84
2020/12/24 04:10:12;;;;;;;3.05;0.68;;;3.90;99.90;;;;;;4875979;28;20522;-85
2020/12/24 04:12:35;;;;;;;6.28;0.60;;;3.90;99.90;;;;;;4871072;28;20494;-87
2020/12/24 04:14:59;;;;;;;3.83;0.80;;;3.90;99.90;;;;;;4866259;28;20166;-83
2020/12/24 04:17:22;;;;;;;4.05;0.60;;;4.00;99.90;;;;;;4880323;28;20087;-85
2020/12/24 04:19:48;;;;;;;4.53;0.63;;;3.90;99.90;;;;;;4878714;28;20577;-86
2020/12/24 04:22:12;;;;;;;5.95;0.55;;;4.00;99.90;;;;;;4873966;28;20175;-85
2020/12/24 04:24:35;;;;;;;5.28;0.60;;;3.90;99.90;;;;;;4900039;28;20501;-85
2020/12/24 04:26:58;;;;;;;1.00;0.50;;;4.00;99.90;;;;;;4901703;28;20170;-85
2020/12/24 04:29:20;;;;;;;3.95;0.47;;;4.00;99.90;;;;;;4892671;28;20588;-86
2020/12/24 04:31:43;;;;;;;7.40;0.47;;;4.00;99.90;;;;;;4903211;28;20106;-84
2020/12/24 04:34:06;;;;;;;1.02;0.55;;;4.00;99.90;;;;;;4905432;28;20174;-83
2020/12/24 04:36:30;;;;;;;1.90;0.50;;;;;;;;;;4900581;28;20235;-84
2020/12/24 04:38:53;;;;;;;6.97;0.70;;;4.00;99.90;;;;;;4893252;28;20098;-85
2020/12/24 04:41:16;;;;;;;7.50;0.50;;;3.90;99.90;;;;;;4882789;28;20087;-85
2020/12/24 04:43:40;;;;;;;1.40;0.43;;;4.00;99.90;;;;;;4892964;28;20125;-84
2020/12/24 04:46:06;;;;;;;4.90;0.57;;;4.00;99.90;;;;;;4890977;28;20118;-84
2020/12/24 04:48:30;;;;;;;0.80;0.63;;;4.00;99.90;;;;;;4902654;28;20174;-84
2020/12/24 04:50:54;;;;;;;3.25;0.95;;;3.90;99.90;;;;;;4906173;28;20091;-83
2020/12/24 04:53:19;;;;;;;3.05;0.38;;;4.00;99.90;;;;;;4896858;28;20503;-85
2020/12/24 04:55:41;;;;;;;1.08;0.40;;;4.00;99.90;;;;;;4899786;28;20157;-85
2020/12/24 04:58:05;;;;;;;6.28;0.82;;;4.00;99.90;;;;;;4899195;28;20090;-84
2020/12/24 05:00:27;;;;;;;2.88;0.73;;;3.90;99.90;;;;;;4898435;28;20091;-84
2020/12/24 05:03:03;;;;;;;2.22;0.50;;;3.90;99.90;;;;;;4897059;28;22704;-86
2020/12/24 05:05:26;;;;;;;2.50;0.60;;;3.90;99.90;;;;;;4900822;28;20096;-87
2020/12/24 05:07:48;;;;;;;3.53;0.50;;;3.80;99.90;;;;;;4901480;28;20090;-85
2020/12/24 05:10:15;;;;;;;7.57;0.80;;;3.90;99.90;;;;;;4900003;28;20079;-87
2020/12/24 05:12:37;;;;;;;12.88;0.70;;;3.90;99.90;;;;;;4899038;28;20507;-90
2020/12/24 05:15:00;;;;;;;2.42;0.50;;;3.90;99.90;;;;;;4897148;28;20739;-85
2020/12/24 05:17:24;;;;;;;2.72;0.63;;;4.00;99.90;;;;;;4904172;28;20095;-85
2020/12/24 05:20:00;;;;;;;2.10;0.73;;;4.00;99.90;;;;;;4875813;28;20091;-84
2020/12/24 05:22:23;;;;;;;1.73;0.65;;;3.90;99.90;;;;;;4899082;28;20082;-83
2020/12/24 05:24:49;;;;;;;2.38;0.70;;;4.00;99.90;;;;;;4874655;28;20466;-84
2020/12/24 05:27:15;;;;;;;7.95;0.88;;;3.90;99.90;;;;;;4870773;28;20170;-85
2020/12/24 05:29:40;;;;;;;0.93;0.52;;;4.00;99.90;;;;;;4903362;28;20083;-84
2020/12/24 05:32:03;;;;;;;5.80;0.93;;;4.00;99.90;;;;;;4902077;28;20733;-84
2020/12/24 05:34:26;;;;;;;5.50;0.80;;;;;;;;;;4899019;28;20083;-85
2020/12/24 05:36:48;;;;;;;2.13;0.68;;;3.90;99.90;;;;;;4903696;28;20087;-86
2020/12/24 05:39:11;;;;;;;0.90;0.50;;;3.90;99.90;;;;;;4898754;28;20558;-86
2020/12/24 05:41:38;;;;;;;4.22;0.80;;;3.90;99.90;;;;;;4893048;28;20093;-85
2020/12/24 05:44:04;;;;;;;2.42;0.50;;;3.90;99.90;;;;;;4897954;28;20170;-85
2020/12/24 05:46:38;;;;;;;;;;;3.90;99.90;;;;;;4902895;28;20487;-86
2020/12/24 05:49:10;;;;;;;3.75;0.43;;;3.90;99.90;;;;;;4900917;28;19962;-83
2020/12/24 05:51:32;;;;;;;0.50;0.40;;;3.90;99.90;;;;;;4899086;28;20101;-84
2020/12/24 05:53:56;;;;;;;4.05;0.63;;;3.90;99.90;;;;;;4873019;28;20186;-84
2020/12/24 05:56:23;;;;;;;1.02;0.50;;;3.90;99.90;;;;;;4871801;28;21630;-82
2020/12/24 05:58:48;;;;;;;3.08;0.50;;;3.90;99.90;;;;;;4898337;28;20087;-84
2020/12/24 06:01:14;;;;;;;0.50;0.25;;;3.90;99.90;;;;;;4898436;28;20091;-84
2020/12/24 06:04:00;;;;;;;0.45;0.38;;;3.90;99.90;;;;;;4897773;28;20471;-84
2020/12/24 06:06:44;;;;;;;0.85;0.40;;;3.90;99.90;;;;;;4871874;28;20088;-85
2020/12/24 06:09:13;;;;;;;1.45;0.40;;;3.90;99.90;;;;;;4868899;28;20095;-83
2020/12/24 06:11:45;;;;;;;5.38;0.40;;;;;;;;;;4860062;28;20094;-85
2020/12/24 06:14:14;;;;;;;0.45;0.38;;;3.90;99.90;;;;;;4878249;28;20108;-83
2020/12/24 06:16:40;;;;;;;0.75;0.20;;;3.90;99.90;;;;;;4875248;28;20531;-84
2020/12/24 06:19:03;;;;;;;;;;;3.90;99.90;;;;;;4894776;28;20114;-84
2020/12/24 06:21:29;;;;;;;1.90;0.28;;;3.90;99.90;;;;;;4901589;28;19966;-84
2020/12/24 06:23:58;;;;;;;0.20;0.20;;;3.90;99.90;;;;;;4904008;28;22049;-85
2020/12/24 06:26:26;;;;;;;1.95;0.25;;;3.90;99.90;;;;;;4874368;28;20119;-86
2020/12/24 06:28:54;;;;;;;4.55;0.57;;;3.90;99.90;;;;;;4903418;28;20617;-83
2020/12/24 06:31:20;;;;;;;2.67;0.52;;;3.90;99.90;;;;;;4902774;28;20472;-84
2020/12/24 06:33:43;;;;;;;4.18;0.50;;;3.90;99.90;;;;;;4899716;28;22764;-84
2020/12/24 06:36:06;;;;;;;1.58;0.50;;;;;;;;;;4870685;28;20092;-84
2020/12/24 06:38:50;;;;;;;2.20;0.52;;;4.00;99.90;;;;;;4874021;28;20174;-84
2020/12/24 06:41:24;;;;;;;0.93;0.30;;;4.00;99.90;;;;;;4895204;28;20095;-83
2020/12/24 06:43:46;;;;;;;1.38;0.38;;;4.00;99.90;;;;;;4901879;28;20093;-84
2020/12/24 06:46:09;;;;;;;0.70;0.50;;;4.00;99.90;;;;;;4896574;28;20502;-83
2020/12/24 06:48:32;;;;;;;5.28;0.47;;;4.00;99.90;;;;;;4901187;28;20617;-86
2020/12/24 06:51:02;;;;;;;2.72;0.40;;;4.00;99.90;;;;;;4904070;28;20083;-84
2020/12/24 06:53:29;;;;;;;1.02;0.50;;;4.00;99.90;;;;;;4877729;28;20427;-83
2020/12/24 06:56:19;;;;;;;1.58;0.30;;;4.10;99.90;;;;;;4904823;28;20434;-83
2020/12/24 06:58:43;;;;;;;3.42;0.60;;;4.00;99.90;;;;;;4904294;28;20468;-85
2020/12/24 07:01:06;;;;;;;0.60;0.40;;;4.00;99.90;;;;;;4905961;28;20173;-85
2020/12/24 07:03:30;;;;;;;4.63;0.20;;;;;;;;;;4897581;28;20095;-85
2020/12/24 07:05:53;;;;;;;1.25;0.38;;;4.10;99.90;;;;;;4905335;28;20177;-82
2020/12/24 07:08:47;;;;;;;2.20;0.52;;;4.10;99.90;;;;;;4875570;28;20171;-85
2020/12/24 07:11:10;;;;;;;3.70;0.20;;;4.20;99.90;;;;;;4901069;28;20166;-84
2020/12/24 07:13:34;;;;;;;2.80;0.40;;;4.20;99.90;;;;;;4904406;28;20101;-84
2020/12/24 07:15:57;;;;;;;1.45;0.30;;;4.20;99.90;;;;;;4877001;28;20086;-84
2020/12/24 07:18:21;;;;;;;7.85;0.40;;;4.20;99.90;;;;;;4904655;28;20220;-85
2020/12/24 07:20:44;;;;;;;2.28;0.40;;;4.20;99.90;;;;;;4901770;28;20441;-87
2020/12/24 07:23:09;;;;;;;2.72;0.50;;;4.20;99.90;;;;;;4902194;28;20174;-86
2020/12/24 07:25:35;;;;;;;1.60;0.35;;;4.10;99.90;;;;;;4898827;28;20122;-86
2020/12/24 07:27:58;;;;;;;0.73;0.30;;;4.10;99.90;;;;;;4890287;28;20110;-85
2020/12/24 07:30:24;;;;;;;1.42;0.20;;;4.10;99.90;;;;;;4900883;28;20166;-84
2020/12/24 07:32:58;;;;;;;3.28;0.35;;;4.10;99.90;;;;;;4900593;28;20198;-88
2020/12/24 07:35:21;;;;;;;0.65;0.30;;;4.10;99.90;;;;;;4891347;28;20141;-85
2020/12/24 07:37:44;;;;;;;2.42;0.17;;;4.10;99.90;;;;;;4883534;28;20174;-85
2020/12/24 07:40:07;;;;;;;3.40;0.13;;;4.10;99.90;;;;;;4875817;28;20088;-85
2020/12/24 07:42:31;;;;;;;3.13;0.10;;;4.10;99.90;;;;;;4875245;28;20092;-86
2020/12/24 07:44:54;;;;;;;1.27;0.35;;;4.10;99.90;;;;;;4877003;28;20092;-85
2020/12/24 07:47:17;;;;;;;13.00;0.35;;;4.00;99.90;;;;;;4883172;28;20432;-87
2020/12/24 07:49:49;;;;;;;1.75;0.40;;;4.10;99.90;;;;;;4885294;28;20095;-86
2020/12/24 07:52:12;;;;;;;3.90;0.20;;;4.10;99.90;;;;;;4879499;28;20114;-85
2020/12/24 07:54:34;;;;;;;3.20;0.20;;;4.00;99.90;;;;;;4880188;28;20195;-86
2020/12/24 07:56:57;;;;;;;2.10;0.32;;;;;;;;;;4894295;28;20082;-86
2020/12/24 07:59:22;;;;;;;1.00;0.22;;;4.10;99.90;;;;;;4899336;28;20087;-86
2020/12/24 08:01:45;;;;;;;4.13;0.30;;;4.00;99.90;;;;;;4895202;28;20173;-85
2020/12/24 08:04:08;;;;;;;0.52;0.20;;;4.00;99.90;;;;;;4901623;28;20079;-86
2020/12/24 08:06:31;;;;;;;2.72;0.22;;;4.00;99.90;;;;;;4903135;28;20597;-85
2020/12/24 08:08:54;;;;;;;3.55;0.20;;;4.10;99.90;;;;;;4903253;28;20084;-85
2020/12/24 08:11:17;;;;;;;0.50;0.20;;;4.00;99.90;;;;;;4900010;28;20141;-84
2020/12/24 08:13:40;;;;;;;0.85;0.17;;;4.10;99.90;;;;;;4902043;28;20455;-85
2020/12/24 08:16:07;;;;;;;0.43;0.30;;;4.10;99.90;;;;;;4904804;28;20094;-85
2020/12/24 08:18:37;;;;;;;0.35;0.17;;;4.10;99.90;;;;;;4901014;28;20100;-85
2020/12/24 08:21:07;;;;;;;1.55;0.30;;;4.10;99.90;;;;;;4906514;28;20138;-85
2020/12/24 08:23:39;;;;;;;4.35;0.43;;;4.10;99.90;;;;;;4903699;28;20086;-85
2020/12/24 08:26:02;;;;;;;3.35;0.20;;;;;;;;;;4902008;28;20091;-86
2020/12/24 08:28:26;;;;;;;3.75;0.30;;;4.10;99.90;;;;;;4874469;28;20126;-86
2020/12/24 08:30:50;;;;;;;4.88;0.28;;;4.10;99.90;;;;;;4881486;28;20117;-86
2020/12/24 08:33:15;;;;;;;5.82;0.10;;;4.10;99.90;;;;;;4885028;28;20229;-86
2020/12/24 08:35:38;;;;;;;1.60;0.20;;;4.10;99.90;;;;;;4888050;28;20150;-87
2020/12/24 08:38:12;;;;;;;0.68;0.20;;;4.10;99.90;;;;;;4902310;28;20441;-85
2020/12/24 08:40:36;;;;;;;0.38;0.20;;;4.10;99.90;;;;;;4873030;28;20187;-85
2020/12/24 08:43:00;;;;;;;2.78;0.68;;;4.10;99.90;;;;;;4872034;28;20400;-86
2020/12/24 08:45:22;;;;;;;5.53;0.63;;;4.10;99.90;;;;;;4903497;28;20087;-85
2020/12/24 08:47:45;;;;;;;2.00;0.30;;;4.10;99.90;;;;;;4901392;28;20452;-85
2020/12/24 08:50:09;;;;;;;1.00;0.30;;;4.10;99.90;;;;;;4901926;28;21328;-86
2020/12/24 08:52:37;;;;;;;0.10;0.10;;;4.10;99.90;;;;;;4894913;28;20563;-87
2020/12/24 08:55:01;;;;;;;0.32;0.20;;;4.00;99.90;;;;;;4900602;28;20095;-86
2020/12/24 08:57:25;;;;;;;9.77;2.33;;;4.10;99.90;;;;;;4903948;28;20098;-85
2020/12/24 08:59:53;;;;;;;4.03;0.90;;;;;;;;;;4902737;28;20509;-86
2020/12/24 09:02:26;;;;;;;2.55;0.45;;;4.10;99.90;;;;;;4849578;28;20559;-84
2020/12/24 09:05:12;;;;;;;0.43;0.32;;;4.10;99.90;;;;;;4834538;28;20091;-86
2020/12/24 09:08:03;;;;;;;0.20;0.20;;;4.10;99.90;;;;;;4842085;28;20092;-86
2020/12/24 09:10:34;;;;;;;1.40;0.25;;;4.10;99.90;;;;;;4854502;28;20087;-86
2020/12/24 09:13:20;;;;;;;0.88;0.10;;;4.10;99.90;;;;;;4838984;28;20462;-85
2020/12/24 09:15:54;;;;;;;0.20;0.20;;;4.10;99.90;;;;;;4852017;28;20503;-86
2020/12/24 09:21:48;;;;;;;4.07;0.17;;;4.00;99.90;;;;;;4852294;28;20164;-86
2020/12/24 09:24:34;;;;;;;0.00;0.00;;;3.90;99.90;;;;;;4844686;28;20220;-86
2020/12/24 09:30:48;;;;;;;0.00;0.00;;;3.90;99.90;;;;;;4838287;28;20079;-86
2020/12/24 09:33:14;;;;;;;0.35;0.15;;;;;;;;;;4837357;28;20840;-84
2020/12/24 09:39:06;;;;;;;0.05;0.05;;;3.50;99.90;;;;;;4817301;28;20621;-86
2020/12/24 10:01:55;;;;;;;0.10;0.10;;;3.40;99.90;;;;;;4836010;28;20095;-84
2020/12/24 10:15:25;;;;;;;0.30;0.10;;;3.50;99.90;;;;;;4879984;27;20086;-83
2020/12/24 10:18:34;;;;;;;0.55;0.20;;;3.50;99.90;;;;;;4885146;27;20100;-87
2020/12/24 10:21:12;;;;;;;2.38;0.15;;;3.60;99.90;;;;;;4876423;27;20627;-81
2020/12/24 10:27:45;;;;;;;0.43;0.17;;;3.60;99.90;;;;;;4874370;27;20253;-85
2020/12/24 10:31:13;;;;;;;0.25;0.13;;;3.60;99.90;;;;;;4884334;28;20149;-84
2020/12/24 10:40:56;;;;;;;1.17;0.40;;;3.60;99.90;;;;;;4898803;27;20082;-83
2020/12/24 10:43:54;;;;;;;0.77;0.35;;;3.60;99.90;;;;;;4888639;27;20263;-85
2020/12/24 10:46:20;;;;;;;0.30;0.30;;;3.70;99.90;;;;;;4914371;27;20078;-85
2020/12/24 10:48:44;;;;;;;0.63;0.40;;;3.70;99.90;;;;;;4940865;27;20161;-85
2020/12/24 10:51:08;;;;;;;0.85;0.43;;;3.70;99.90;;;;;;4935584;28;20117;-84
2020/12/24 10:53:30;;;;;;;0.30;0.30;;;3.70;99.90;;;;;;4937988;27;20143;-88
2020/12/24 10:55:53;;;;;;;2.58;0.20;;;3.60;99.90;;;;;;4958720;27;20125;-85
2020/12/24 10:58:16;;;;;;;0.30;0.20;;;3.60;99.90;;;;;;4957404;27;20082;-86
2020/12/24 11:00:39;;;;;;;0.22;0.22;;;3.60;99.90;;;;;;4956577;27;20089;-84
2020/12/24 11:03:02;;;;;;;0.45;0.30;;;3.50;99.90;;;;;;4957636;27;20591;-86
2020/12/24 11:05:25;;;;;;;0.17;0.17;;;3.50;99.90;;;;;;4954592;27;20082;-84
2020/12/24 11:07:48;;;;;;;0.25;0.25;;;3.50;99.90;;;;;;4956743;27;20086;-84
2020/12/24 11:10:11;;;;;;;3.03;0.20;;;3.50;99.90;;;;;;4952091;27;20100;-83
2020/12/24 11:12:34;;;;;;;0.43;0.20;;;3.40;99.90;;;;;;4953722;27;20239;-83
2020/12/24 11:14:56;;;;;;;0.10;0.10;;;3.40;99.90;;;;;;4945268;27;20106;-83
2020/12/24 11:17:20;;;;;;;0.52;0.17;;;3.40;99.90;;;;;;4956738;27;20169;-84
2020/12/24 11:19:49;;;;;;;1.00;0.52;;;3.40;99.90;;;;;;4943132;28;20082;-84
2020/12/24 11:22:11;;;;;;;0.08;0.08;;;3.40;99.90;;;;;;4944097;28;20175;-85
2020/12/24 11:24:34;;;;;;;4.25;0.15;;;3.40;99.90;;;;;;4923706;28;20162;-83
2020/12/24 11:27:02;;;;;;;0.73;0.30;;;3.40;99.90;;;;;;4912511;28;20096;-86
2020/12/24 11:29:37;;;;;;;0.10;0.10;;;3.30;99.90;;;;;;4943668;27;20106;-85
2020/12/24 11:32:00;;;;;;;2.40;0.17;;;3.30;99.90;;;;;;4940295;28;20088;-85
2020/12/24 11:34:23;;;;;;;0.32;0.20;;;3.30;99.90;;;;;;4943155;28;20178;-83
2020/12/24 11:36:46;;;;;;;0.52;0.20;;;;;;;;;;4943482;27;20447;-85
2020/12/24 11:39:09;;;;;;;0.43;0.10;;;3.30;99.90;;;;;;4942920;28;20629;-84
2020/12/24 11:41:34;;;;;;;0.13;0.10;;;3.30;99.90;;;;;;4942796;28;20124;-84
2020/12/24 11:43:58;;;;;;;0.00;0.00;;;3.30;99.90;;;;;;4933740;28;20078;-83
2020/12/24 11:46:23;;;;;;;1.20;0.10;;;3.30;99.90;;;;;;4944417;28;20108;-84
2020/12/24 11:48:47;;;;;;;0.10;0.10;;;3.30;99.90;;;;;;4938332;27;20098;-84
2020/12/24 11:51:13;;;;;;;0.30;0.20;;;3.30;99.90;;;;;;4934321;28;20185;-91
2020/12/24 11:53:38;;;;;;;0.10;0.10;;;;;;;;;;4930333;28;20090;-84
2020/12/24 11:56:02;;;;;;;2.08;0.32;;;3.30;99.90;;;;;;4942399;27;20197;-85
2020/12/24 11:58:25;;;;;;;0.30;0.28;;;3.30;99.90;;;;;;4944399;28;20094;-86
2020/12/24 12:00:48;;;;;;;0.93;0.30;;;3.30;99.90;;;;;;4939950;28;20179;-84
2020/12/24 12:03:10;;;;;;;0.30;0.20;;;3.40;99.90;;;;;;4942233;28;20177;-83
2020/12/24 12:05:33;;;;;;;0.40;0.40;;;3.40;99.90;;;;;;4941157;27;20116;-84
2020/12/24 12:07:56;;;;;;;0.28;0.28;;;3.50;99.90;;;;;;4941595;28;20125;-84
2020/12/24 12:10:19;;;;;;;0.30;0.30;;;3.50;99.90;;;;;;4940847;27;20506;-84
2020/12/24 12:12:44;;;;;;;0.63;0.40;;;3.60;99.90;;;;;;4940292;27;25813;-84
2020/12/24 12:15:06;;;;;;;0.38;0.20;;;3.60;99.90;;;;;;4939969;28;20090;-83
2020/12/24 12:17:30;;;;;;;2.00;0.30;;;3.60;99.90;;;;;;4943591;27;20117;-84
2020/12/24 12:20:02;;;;;;;0.28;0.25;;;3.70;99.90;;;;;;4940970;28;20172;-83
2020/12/24 12:22:25;;;;;;;0.10;0.10;;;3.70;99.90;;;;;;4943929;28;20082;-84
2020/12/24 12:24:48;;;;;;;0.63;0.25;;;3.70;99.90;;;;;;4952648;28;20178;-83
2020/12/24 12:27:12;;;;;;;0.55;0.32;;;3.70;99.90;;;;;;4949793;28;20082;-83
2020/12/24 12:29:35;;;;;;;0.38;0.30;;;3.80;99.90;;;;;;4941559;27;20100;-83
2020/12/24 12:31:58;;;;;;;1.63;0.30;;;3.80;99.90;;;;;;4942272;28;20556;-83
2020/12/24 12:34:20;;;;;;;0.47;0.30;;;3.80;99.90;;;;;;4942150;28;20093;-84
2020/12/24 12:36:43;;;;;;;0.32;0.20;;;3.80;99.90;;;;;;4940144;28;21519;-84
2020/12/24 12:39:07;;;;;;;0.85;0.30;;;3.90;99.90;;;;;;4943126;28;20101;-85
2020/12/24 12:41:31;;;;;;;0.20;0.20;;;3.90;99.90;;;;;;4926314;27;20213;-84
2020/12/24 12:43:55;;;;;;;1.60;0.40;;;3.90;99.90;;;;;;4941436;28;20173;-86
2020/12/24 12:46:19;;;;;;;0.43;0.20;;;4.00;99.90;;;;;;4941325;28;20179;-85
2020/12/24 12:48:42;;;;;;;0.20;0.20;;;3.90;99.90;;;;;;4944194;27;20090;-86
2020/12/24 12:51:05;;;;;;;0.10;0.10;;;3.90;99.90;;;;;;4942429;28;20168;-88
2020/12/24 12:53:28;;;;;;;1.00;0.20;;;4.00;99.90;;;;;;4942258;28;20106;-88
2020/12/24 12:55:50;;;;;;;0.65;0.20;;;4.00;99.90;;;;;;4940828;28;20101;-88
2020/12/24 12:58:13;;;;;;;0.10;0.10;;;4.00;99.90;;;;;;4941804;28;20173;-86
2020/12/24 13:00:37;;;;;;;0.52;0.30;;;4.00;99.90;;;;;;4926281;28;20131;-84
2020/12/24 13:03:00;;;;;;;0.22;0.10;;;4.00;99.90;;;;;;4939684;28;20243;-87
2020/12/24 13:05:23;;;;;;;0.20;0.10;;;4.00;99.90;;;;;;4940676;27;20075;-85
2020/12/24 13:07:45;;;;;;;0.10;0.10;;;4.00;99.90;;;;;;4941901;28;20093;-87
2020/12/24 13:10:08;;;;;;;0.10;0.10;;;4.00;99.90;;;;;;4942561;28;20155;-85
2020/12/24 13:12:31;;;;;;;0.32;0.03;;;3.90;99.90;;;;;;4939565;28;20510;-87
2020/12/24 13:14:54;;;;;;;0.10;0.10;;;3.90;99.90;;;;;;4944242;28;20116;-90
2020/12/24 13:17:22;;;;;;;0.08;0.08;;;3.90;99.90;;;;;;4940508;27;20101;-87
2020/12/24 13:19:44;;;;;;;0.10;0.10;;;3.90;99.90;;;;;;4942345;28;20090;-89
2020/12/24 13:22:07;;;;;;;0.32;0.15;;;3.90;99.90;;;;;;4920754;28;20086;-85
2020/12/24 13:24:31;;;;;;;0.30;0.30;;;3.90;99.90;;;;;;4939177;28;20092;-85
2020/12/24 13:26:56;;;;;;;0.28;0.20;;;3.90;99.90;;;;;;4941256;28;20093;-85
2020/12/24 13:29:19;;;;;;;0.60;0.30;;;;;;;;;;4937094;27;20117;-85
2020/12/24 13:31:42;;;;;;;0.32;0.22;;;3.90;99.90;;;;;;4942296;28;20524;-86
2020/12/24 13:34:06;;;;;;;0.30;0.30;;;;;;;;;;4942392;28;20094;-86
2020/12/24 13:36:29;;;;;;;0.28;0.25;;;3.90;99.90;;;;;;4938834;28;20513;-85
2020/12/24 13:38:55;;;;;;;0.52;0.40;;;3.90;99.90;;;;;;4940078;28;20110;-85
2020/12/24 13:41:18;;;;;;;0.20;0.20;;;3.90;99.90;;;;;;4922596;28;20091;-85
2020/12/24 13:43:41;;;;;;;0.40;0.30;;;3.90;99.90;;;;;;4939796;28;20542;-84
2020/12/24 13:46:04;;;;;;;0.73;0.30;;;;;;;;;;4938761;28;20501;-86
2020/12/24 13:48:27;;;;;;;0.52;0.40;;;3.90;99.90;;;;;;4944998;27;20086;-85